Bavaria

Go HERE for most recent data if this page is not up to date.

Jump to table bottom
Date Time Temp F RH % AVG Wind Max Wind Wind Dir 24 Snow Depth
*12/02/21 17 36.5 58 16 25 SW - 239 1.6 21.8
*12/02/21 16 37.4 58 17 25 W - 261 1.6 21.8
*12/02/21 15 37.6 59 19 28 W - 260 1.7 21.9
*12/02/21 14 38.0 59 18 26 SW - 231 1.6 22.1
*12/02/21 13 37.4 61 20 35 SW - 246 1.5 22.4
*12/02/21 12 37.4 62 20 29 W - 265 1.7 22.5
*12/02/21 11 38.9 60 17 27 W - 251 1.9 22.8
*12/02/21 10 37.6 63 21 32 SW - 246 2.0 22.8
*12/02/21 09 37.4 64 22 34 W - 270 1.9 22.8
*12/02/21 08 37.4 65 17 25 W - 262 1.9 22.9
*12/02/21 07 37.9 64 18 27 W - 273 1.9 23.0
*12/02/21 06 38.4 61 20 29 SW - 219 2.1 23.0
*12/02/21 05 38.1 63 20 34 W - 250 2.0 23.0
*12/02/21 04 38.3 62 23 32 SW - 241 2.0 23.1
*12/02/21 03 38.7 62 26 34 SW - 244 1.9 23.1
*12/02/21 02 37.8 63 25 38 W - 249 2.0 23.1
*12/02/21 01 37.6 65 27 36 SW - 238 2.0 23.1
*12/02/21 00 37.4 67 28 37 SW - 246 2.0 23.1
*12/01/21 23 37.2 69 25 33 SW - 206 2.0 23.2
*12/01/21 22 37.2 68 24 33 SW - 233 2.0 23.2
*12/01/21 21 37.0 69 25 33 SW - 234 1.9 23.2
*12/01/21 20 36.9 70 30 39 SW - 244 1.8 23.3
*12/01/21 19 37.3 71 30 38 SW - 215 2.0 23.3
*12/01/21 18 37.5 70 25 32 W - 252 1.8 23.3
*12/01/21 17 37.8 69 20 31 W - 266 2.1 23.3
*12/01/21 16 38.1 68 25 35 SW - 229 2.1 23.3
*12/01/21 15 37.9 70 25 34 SW - 244 2.1 23.3
*12/01/21 14 37.9 72 23 32 SW - 238 2.2 23.6
*12/01/21 13 38.5 70 19 27 SW - 232 2.5 23.9
*12/01/21 12 37.7 73 21 29 W - 256 2.8 24.2
*12/01/21 11 37.0 74 14 24 SW - 245 2.4 24.5
*12/01/21 10 35.9 74 12 22 SW - 239 2.7 24.6
*12/01/21 09 35.7 74 9 22 W - 250 2.9 24.7
*12/01/21 08 33.4 81 9 17 W - 266 3.1 24.6
*12/01/21 07 32.9 84 12 21 SW - 214 3.2 24.8
*12/01/21 06 33.6 83 11 18 SW - 223 3.0 143.3
*12/01/21 05 33.0 90 9 15 SW - 234 3.1 143.3
*12/01/21 04 34.1 83 11 18 W - 265 3.1 143.3
*12/01/21 03 32.1 91 10 17 SW - 245 3.1 143.3
*12/01/21 02 32.3 89 15 21 W - 270 3.3 143.3
*12/01/21 01 30.9 93 10 19 W - 254 3.0 143.3
*12/01/21 00 30.9 92 9 17 W - 288 2.9 143.3
.